Humidity-temperature Sensor

Selected Measurement Type: Air Temperature

 
Air Temperature [°C]     6 entries per hour
Showing data from 9/14/2019 (00:00:00 Z) to 9/13/2019 (00:01:00 Z)
Previous Next [ Day | 3-Days | 7-Days ]
First Last
Prev [ Day | 3-Days | 7-Days ] Next
First Last

Start Time:     :
End Time:     :     
Time (in GMT) :00 :50 :40 :30 :20 :10
Previous Next [ Day | 3-Days | 7-Days ]
First Last
Prev [ Day | 3-Days | 7-Days ] Next
First Last


123 => good data
MM => data is determined as missing
-- => data not received/configured
Back to Top Back to Top
9/14/2019 00:00 to 23:10 25.04 24.94 24.86 24.89 24.80 25.06
9/13/2019 23:00 to 22:10 25.05 24.51 24.44 23.95 24.65 24.33
9/13/2019 22:00 to 21:10 24.85 24.87 24.64 24.95 24.78 23.94
9/13/2019 21:00 to 20:10 23.97 24.32 24.65 24.78 25.06 25.02
9/13/2019 20:00 to 19:10 24.91 25.09 25.11 25.45 25.45 25.45
9/13/2019 19:00 to 18:10 25.36 25.44 25.39 25.50 25.47 25.59
9/13/2019 18:00 to 17:10 25.43 25.61 25.35 25.32 25.17 25.29
9/13/2019 17:00 to 16:10 24.98 25.03 24.93 24.84 24.68 24.93
9/13/2019 16:00 to 15:10 25.03 24.74 24.95 24.79 24.71 24.54
9/13/2019 15:00 to 14:10 25.08 24.91 24.67 24.38 24.60 24.78
9/13/2019 14:00 to 13:10 25.18 25.27 25.23 25.27 25.19 25.28
9/13/2019 13:00 to 12:10 25.07 24.94 24.96 25.11 25.34 25.24
9/13/2019 12:00 to 11:10 25.19 25.04 25.08 25.35 25.24 25.34
9/13/2019 11:00 to 10:10 25.49 25.45 25.49 25.45 25.32 25.25
9/13/2019 10:00 to 9:10 25.24 25.00 25.19 25.19 25.33 25.21
9/13/2019 09:00 to 8:10 25.26 25.28 25.29 25.37 25.56 25.39
9/13/2019 08:00 to 7:10 25.47 25.23 25.41 25.43 25.36 25.25
9/13/2019 07:00 to 6:10 25.28 25.41 25.48 25.50 25.49 25.42
9/13/2019 06:00 to 5:10 25.33 25.45 25.46 25.48 25.48 25.59
9/13/2019 05:00 to 4:10 25.55 25.55 25.58 25.46 25.45 25.47
9/13/2019 04:00 to 3:10 25.33 25.50 25.55 25.61 25.67 25.64
9/13/2019 03:00 to 2:10 25.55 25.69 25.69 25.62 25.55 25.60
9/13/2019 02:00 to 1:10 25.56 25.55 25.56 25.45 25.43 25.48
9/13/2019 01:00 to 0:10 25.43 25.53 25.43 25.42 25.43 25.56